createdAt,value
2022-10-10T00:00:15.347Z,50.13
2022-10-10T00:01:15.374Z,50.78
2022-10-10T00:02:15.335Z,47.92
2022-10-10T00:03:15.319Z,45.32
2022-10-10T00:04:15.317Z,46.51
2022-10-10T00:05:15.313Z,47.21
2022-10-10T00:06:15.323Z,49.16
2022-10-10T00:07:15.305Z,42.90
2022-10-10T00:08:15.284Z,45.72
2022-10-10T00:09:15.278Z,52.07
2022-10-10T00:10:15.280Z,56.96
2022-10-10T00:11:15.295Z,54.98
2022-10-10T00:12:15.254Z,56.23
2022-10-10T00:13:15.254Z,56.62
2022-10-10T00:14:15.249Z,56.80
2022-10-10T00:15:15.235Z,57.66
2022-10-10T00:16:15.253Z,57.50
2022-10-10T00:17:15.222Z,57.04
2022-10-10T00:18:15.217Z,57.09
2022-10-10T00:19:15.212Z,58.36
2022-10-10T00:20:15.203Z,57.20
2022-10-10T00:21:15.214Z,46.39
2022-10-10T00:22:15.187Z,51.26
2022-10-10T00:23:15.182Z,39.35
2022-10-10T00:24:15.169Z,43.54
2022-10-10T00:25:15.159Z,44.75
2022-10-10T00:26:18.760Z,44.79
2022-10-10T00:27:16.141Z,55.63
2022-10-10T00:28:15.152Z,45.67
2022-10-10T00:29:15.124Z,44.42
2022-10-10T00:30:15.112Z,42.86
2022-10-10T00:31:16.146Z,40.81
2022-10-10T00:32:15.104Z,47.44
2022-10-10T00:33:15.103Z,48.50
2022-10-10T00:34:15.104Z,44.75
2022-10-10T00:35:15.081Z,45.05
2022-10-10T00:36:15.096Z,41.63
2022-10-10T00:37:15.064Z,46.90
2022-10-10T00:38:15.060Z,43.80
2022-10-10T00:39:15.050Z,42.47
2022-10-10T00:40:15.044Z,54.85
2022-10-10T00:41:15.069Z,57.21
2022-10-10T00:42:15.027Z,58.64
2022-10-10T00:43:15.030Z,56.15
2022-10-10T00:44:15.018Z,57.25
2022-10-10T00:45:15.014Z,56.92
2022-10-10T00:46:15.038Z,56.04
2022-10-10T00:47:15.004Z,57.55
2022-10-10T00:48:14.986Z,57.80
2022-10-10T00:49:14.988Z,57.43
2022-10-10T00:50:14.976Z,57.70
2022-10-10T00:51:14.998Z,42.43
2022-10-10T00:52:14.965Z,39.74
2022-10-10T00:53:14.963Z,44.70
2022-10-10T00:54:14.942Z,39.60
2022-10-10T00:55:14.938Z,43.04
2022-10-10T00:56:14.957Z,44.62
2022-10-10T00:57:14.934Z,42.25
2022-10-10T00:58:14.922Z,46.01
2022-10-10T00:59:14.905Z,49.05
2022-10-10T01:00:14.899Z,54.35
2022-10-10T01:01:14.954Z,44.44
2022-10-10T01:02:14.881Z,45.83
2022-10-10T01:03:14.914Z,45.13
2022-10-10T01:04:14.872Z,49.68
2022-10-10T01:05:14.858Z,48.87
2022-10-10T01:06:14.877Z,52.97
2022-10-10T01:07:14.884Z,58.16
2022-10-10T01:08:14.834Z,54.13
2022-10-10T01:09:14.828Z,59.48
2022-10-10T01:10:14.821Z,56.68
2022-10-10T01:11:14.836Z,58.35
2022-10-10T01:12:14.801Z,55.80
2022-10-10T01:13:14.815Z,58.04
2022-10-10T01:14:14.837Z,57.49
2022-10-10T01:15:14.816Z,57.83
2022-10-10T01:16:14.794Z,57.87
2022-10-10T01:17:14.768Z,56.85
2022-10-10T01:18:14.761Z,48.45
2022-10-10T01:19:14.748Z,42.00
2022-10-10T01:20:14.746Z,46.83
2022-10-10T01:21:14.766Z,53.59
2022-10-10T01:22:14.731Z,44.10
2022-10-10T01:23:14.728Z,44.72
2022-10-10T01:24:14.710Z,43.00
2022-10-10T01:25:14.701Z,45.00
2022-10-10T01:26:14.731Z,45.49
2022-10-10T01:27:14.693Z,44.48
2022-10-10T01:28:14.741Z,44.86
2022-10-10T01:29:14.692Z,42.28
2022-10-10T01:30:14.667Z,44.89
2022-10-10T01:31:14.699Z,53.99
2022-10-10T01:32:14.651Z,56.35
2022-10-10T01:33:14.643Z,54.21
2022-10-10T01:34:14.638Z,57.38
2022-10-10T01:35:14.631Z,57.87
2022-10-10T01:36:14.621Z,58.04
2022-10-10T01:37:14.641Z,56.34
2022-10-10T01:38:14.607Z,57.67
2022-10-10T01:39:14.593Z,57.40
2022-10-10T01:40:14.595Z,58.61
2022-10-10T01:41:14.587Z,55.46
2022-10-10T01:42:14.606Z,59.38
2022-10-10T01:43:14.571Z,45.80
2022-10-10T01:44:14.569Z,45.07
2022-10-10T01:45:14.555Z,42.93
2022-10-10T01:46:14.547Z,45.15
2022-10-10T01:47:14.567Z,43.44
2022-10-10T01:48:14.538Z,44.67
2022-10-10T01:49:14.531Z,44.22
2022-10-10T01:50:14.521Z,43.67
2022-10-10T01:51:14.512Z,41.71
2022-10-10T01:52:14.526Z,42.27
2022-10-10T01:53:14.498Z,41.98
2022-10-10T01:54:14.494Z,47.44
2022-10-10T01:55:14.482Z,47.85
2022-10-10T01:56:14.508Z,47.62
2022-10-10T01:57:14.494Z,43.64
2022-10-10T01:58:14.458Z,51.08
2022-10-10T01:59:14.452Z,49.73
2022-10-10T02:00:14.445Z,43.79
2022-10-10T02:01:14.489Z,46.87
2022-10-10T02:02:14.466Z,50.96
2022-10-10T02:03:14.425Z,49.26
2022-10-10T02:04:14.419Z,48.25
2022-10-10T02:05:14.402Z,46.87
2022-10-10T02:06:14.403Z,45.96
2022-10-10T02:07:14.422Z,57.35
2022-10-10T02:08:14.385Z,57.99
2022-10-10T02:09:14.377Z,58.20
2022-10-10T02:10:14.368Z,58.41
2022-10-10T02:11:14.362Z,59.26
2022-10-10T02:12:14.386Z,57.39
2022-10-10T02:13:14.349Z,56.66
2022-10-10T02:14:14.344Z,57.77
2022-10-10T02:15:14.341Z,58.14
2022-10-10T02:16:14.325Z,60.88
2022-10-10T02:17:14.351Z,51.10
2022-10-10T02:18:14.310Z,44.93
2022-10-10T02:19:14.309Z,51.96
2022-10-10T02:20:14.298Z,45.67
2022-10-10T02:21:14.290Z,50.90
2022-10-10T02:22:14.308Z,49.84
2022-10-10T02:23:14.286Z,49.74
2022-10-10T02:24:14.273Z,43.50
2022-10-10T02:25:14.265Z,44.25
2022-10-10T02:26:14.263Z,43.78
2022-10-10T02:27:14.276Z,49.82
2022-10-10T02:28:14.310Z,48.32
2022-10-10T02:29:14.233Z,47.97
2022-10-10T02:30:14.229Z,53.89
2022-10-10T02:31:14.243Z,56.33
2022-10-10T02:32:14.213Z,55.58
2022-10-10T02:33:14.205Z,57.68
2022-10-10T02:34:14.192Z,58.99
2022-10-10T02:35:14.192Z,57.78
2022-10-10T02:36:14.183Z,57.09
2022-10-10T02:37:14.198Z,58.22
2022-10-10T02:38:14.176Z,57.75
2022-10-10T02:39:14.161Z,57.79
2022-10-10T02:40:14.160Z,49.34
2022-10-10T02:41:14.143Z,48.13
2022-10-10T02:42:14.167Z,52.42
2022-10-10T02:43:14.134Z,54.27
2022-10-10T02:44:14.121Z,49.22
2022-10-10T02:45:14.123Z,51.56
2022-10-10T02:46:14.113Z,59.54
2022-10-10T02:47:14.121Z,49.26
2022-10-10T02:48:14.086Z,45.29
2022-10-10T02:49:14.086Z,49.28
2022-10-10T02:50:14.075Z,54.04
2022-10-10T02:51:14.069Z,52.65
2022-10-10T02:52:14.081Z,45.18
2022-10-10T02:53:14.049Z,48.36
2022-10-10T02:54:14.045Z,48.13
2022-10-10T02:55:14.040Z,52.66
2022-10-10T02:56:14.029Z,50.94
2022-10-10T02:57:14.037Z,49.00
2022-10-10T02:58:14.007Z,52.67
2022-10-10T02:59:14.013Z,48.48
2022-10-10T03:00:13.998Z,55.10
2022-10-10T03:01:14.032Z,52.00
2022-10-10T03:02:14.012Z,51.25
2022-10-10T03:03:13.978Z,51.38
2022-10-10T03:04:13.964Z,51.48
2022-10-10T03:05:13.960Z,57.95
2022-10-10T03:06:13.959Z,56.56
2022-10-10T03:07:13.965Z,52.92
2022-10-10T03:08:14.939Z,47.69
2022-10-10T03:09:13.934Z,50.92
2022-10-10T03:10:13.921Z,51.42
2022-10-10T03:11:13.914Z,52.58
2022-10-10T03:12:13.934Z,59.66
2022-10-10T03:13:13.899Z,58.01
2022-10-10T03:14:13.892Z,57.31
2022-10-10T03:15:13.881Z,56.80
2022-10-10T03:16:13.877Z,57.32
2022-10-10T03:17:13.897Z,57.54
2022-10-10T03:18:13.864Z,57.67
2022-10-10T03:19:13.852Z,59.79
2022-10-10T03:20:13.841Z,57.79
2022-10-10T03:21:13.838Z,52.63
2022-10-10T03:22:13.859Z,54.39
2022-10-10T03:23:13.827Z,53.23
2022-10-10T03:24:13.816Z,48.79
2022-10-10T03:25:13.807Z,56.34
2022-10-10T03:26:13.801Z,55.79
2022-10-10T03:27:13.821Z,54.34
2022-10-10T03:28:13.822Z,56.26
2022-10-10T03:29:13.776Z,55.16
2022-10-10T03:30:13.779Z,54.56
2022-10-10T03:31:13.762Z,57.14
2022-10-10T03:32:13.782Z,55.43
2022-10-10T03:33:13.747Z,51.52
2022-10-10T03:34:13.745Z,55.09
2022-10-10T03:35:13.740Z,57.06
2022-10-10T03:36:13.723Z,59.42
2022-10-10T03:37:13.761Z,59.01
2022-10-10T03:38:13.730Z,62.55
2022-10-10T03:39:13.704Z,58.21
2022-10-10T03:40:13.703Z,59.09
2022-10-10T03:41:13.702Z,59.26
2022-10-10T03:42:13.710Z,55.14
2022-10-10T03:43:13.677Z,52.76
2022-10-10T03:44:13.670Z,56.42
2022-10-10T03:45:13.674Z,54.99
2022-10-10T03:46:16.237Z,55.97
2022-10-10T03:47:14.681Z,54.80
2022-10-10T03:48:13.649Z,54.84
2022-10-10T03:49:13.637Z,54.57
2022-10-10T03:50:13.619Z,54.20
2022-10-10T03:51:13.617Z,58.38
2022-10-10T03:52:13.782Z,57.09
2022-10-10T03:53:13.595Z,55.20
2022-10-10T03:54:13.590Z,59.55
2022-10-10T03:55:13.581Z,57.60
2022-10-10T03:56:13.589Z,58.18
2022-10-10T03:57:13.576Z,59.06
2022-10-10T03:58:13.595Z,59.97
2022-10-10T03:59:13.565Z,58.12
2022-10-10T04:00:13.543Z,62.13
2022-10-10T04:01:14.592Z,57.42
2022-10-10T04:02:13.535Z,58.80
2022-10-10T04:03:13.551Z,52.67
2022-10-10T04:04:13.522Z,54.13
2022-10-10T04:05:13.512Z,59.45
2022-10-10T04:06:13.505Z,55.42
2022-10-10T04:07:13.503Z,53.47
2022-10-10T04:08:13.514Z,53.55
2022-10-10T04:09:13.476Z,54.44
2022-10-10T04:10:13.477Z,52.80
2022-10-10T04:11:13.467Z,54.86
2022-10-10T04:12:13.457Z,56.12
2022-10-10T04:13:13.482Z,55.99
2022-10-10T04:14:13.442Z,51.61
2022-10-10T04:15:13.438Z,56.90
2022-10-10T04:16:13.424Z,57.93
2022-10-10T04:17:13.419Z,53.13
2022-10-10T04:18:13.439Z,57.52
2022-10-10T04:19:13.404Z,55.03
2022-10-10T04:20:13.399Z,55.84
2022-10-10T04:21:13.396Z,56.74
2022-10-10T04:22:13.382Z,57.24
2022-10-10T04:23:13.407Z,53.75
2022-10-10T04:24:13.377Z,55.89
2022-10-10T04:25:13.360Z,58.73
2022-10-10T04:26:13.371Z,58.71
2022-10-10T04:27:13.368Z,59.69
2022-10-10T04:28:13.382Z,61.52
2022-10-10T04:29:13.342Z,59.07
2022-10-10T04:30:13.324Z,58.10
2022-10-10T04:31:13.320Z,60.31
2022-10-10T04:32:13.313Z,58.88
2022-10-10T04:33:13.341Z,58.20
2022-10-10T04:34:13.292Z,59.69
2022-10-10T04:35:13.301Z,51.66
2022-10-10T04:36:13.282Z,58.29
2022-10-10T04:37:13.277Z,56.51
2022-10-10T04:38:13.290Z,57.18
2022-10-10T04:39:13.270Z,58.17
2022-10-10T04:40:13.258Z,55.11
2022-10-10T04:41:13.248Z,56.15
2022-10-10T04:42:13.241Z,55.67
2022-10-10T04:43:13.260Z,57.94
2022-10-10T04:44:13.224Z,57.42
2022-10-10T04:45:13.214Z,59.21
2022-10-10T04:46:13.205Z,56.00
2022-10-10T04:47:13.227Z,58.58
2022-10-10T04:48:13.219Z,56.69
2022-10-10T04:49:13.181Z,59.03
2022-10-10T04:50:13.171Z,56.66
2022-10-10T04:51:13.171Z,57.41
2022-10-10T04:52:13.161Z,57.21
2022-10-10T04:53:13.180Z,58.63
2022-10-10T04:54:13.146Z,56.54
2022-10-10T04:55:13.133Z,56.19
2022-10-10T04:56:13.129Z,58.11
2022-10-10T04:57:13.118Z,59.99
2022-10-10T04:58:13.132Z,58.43
2022-10-10T04:59:13.108Z,59.65
2022-10-10T05:00:13.099Z,59.82
2022-10-10T05:01:13.142Z,60.38
2022-10-10T05:02:13.092Z,60.50
2022-10-10T05:03:13.109Z,60.68
2022-10-10T05:04:13.066Z,59.05
2022-10-10T05:05:13.061Z,59.96
2022-10-10T05:06:13.051Z,58.74
2022-10-10T05:07:13.046Z,55.69
2022-10-10T05:08:13.071Z,56.59
2022-10-10T05:09:13.042Z,55.47
2022-10-10T05:10:13.027Z,58.60
2022-10-10T05:11:13.015Z,55.83
2022-10-10T05:12:13.016Z,61.74
2022-10-10T05:13:13.025Z,57.09
2022-10-10T05:14:12.993Z,59.38
2022-10-10T05:15:12.983Z,59.81
2022-10-10T05:16:12.985Z,57.75
2022-10-10T05:17:12.952Z,55.76
2022-10-10T05:18:13.988Z,58.87
2022-10-10T05:19:12.962Z,57.73
2022-10-10T05:20:12.953Z,58.52
2022-10-10T05:21:12.940Z,62.40
2022-10-10T05:22:12.939Z,59.05
2022-10-10T05:23:12.957Z,59.63
2022-10-10T05:24:12.919Z,57.84
2022-10-10T05:25:12.905Z,58.01
2022-10-10T05:26:13.907Z,58.28
2022-10-10T05:27:12.893Z,56.07
2022-10-10T05:28:12.992Z,55.91
2022-10-10T05:29:12.879Z,58.03
2022-10-10T05:30:12.881Z,58.14
2022-10-10T05:31:12.870Z,58.33
2022-10-10T05:32:12.883Z,57.04
2022-10-10T05:33:12.879Z,57.24
2022-10-10T05:34:12.844Z,57.00
2022-10-10T05:35:12.834Z,57.54
2022-10-10T05:36:12.832Z,59.88
2022-10-10T05:37:12.821Z,59.08
2022-10-10T05:38:12.839Z,60.10
2022-10-10T05:39:12.809Z,58.42
2022-10-10T05:40:12.796Z,59.84
2022-10-10T05:41:12.796Z,62.47
2022-10-10T05:42:12.814Z,58.62
2022-10-10T05:43:12.896Z,58.88
2022-10-10T05:44:12.767Z,58.49
2022-10-10T05:45:12.767Z,58.87
2022-10-10T05:46:12.753Z,58.93
2022-10-10T05:47:12.742Z,58.04
2022-10-10T05:48:12.794Z,56.45
2022-10-10T05:49:12.727Z,59.19
2022-10-10T05:50:12.718Z,58.68
2022-10-10T05:51:12.715Z,57.91
2022-10-10T05:52:12.708Z,56.94
2022-10-10T05:53:12.725Z,57.65
2022-10-10T05:54:12.685Z,58.79
2022-10-10T05:55:12.675Z,56.75
2022-10-10T05:56:12.675Z,57.79
2022-10-10T05:57:16.242Z,50.76
2022-10-10T05:58:13.687Z,63.92
2022-10-10T05:59:12.655Z,59.17
2022-10-10T06:00:12.643Z,61.52
2022-10-10T06:01:12.637Z,54.10
2022-10-10T06:02:12.677Z,57.77
2022-10-10T06:03:12.649Z,56.95
2022-10-10T06:04:12.612Z,54.69
2022-10-10T06:05:12.610Z,56.64
2022-10-10T06:06:12.615Z,56.54
2022-10-10T06:07:12.587Z,59.33
2022-10-10T06:08:12.795Z,58.83
2022-10-10T06:09:12.616Z,60.03
2022-10-10T06:10:12.572Z,59.26
2022-10-10T06:11:12.561Z,59.52
2022-10-10T06:12:12.553Z,60.64
2022-10-10T06:13:12.559Z,61.48
2022-10-10T06:14:12.570Z,60.46
2022-10-10T06:15:12.530Z,59.67
2022-10-10T06:16:12.549Z,60.25
2022-10-10T06:17:12.551Z,60.54
2022-10-10T06:18:12.512Z,60.53
2022-10-10T06:19:14.975Z,61.12
2022-10-10T06:20:13.490Z,60.27
2022-10-10T06:21:12.487Z,57.08
2022-10-10T06:22:12.480Z,57.43
2022-10-10T06:23:12.479Z,56.05
2022-10-10T06:24:12.491Z,55.91
2022-10-10T06:25:35.263Z,50.48
2022-10-10T06:26:14.450Z,56.00
2022-10-10T06:27:12.445Z,53.82
2022-10-10T06:28:12.518Z,52.49
2022-10-10T06:29:12.459Z,51.97
2022-10-10T06:30:12.424Z,57.26
2022-10-10T06:31:12.518Z,55.28
2022-10-10T06:32:12.407Z,54.63
2022-10-10T06:33:12.404Z,54.46
2022-10-10T06:34:12.419Z,54.17
2022-10-10T06:35:12.385Z,55.40
2022-10-10T06:36:12.374Z,55.41
2022-10-10T06:37:12.386Z,58.33
2022-10-10T06:38:12.359Z,52.04
2022-10-10T06:39:13.381Z,54.90
2022-10-10T06:40:12.361Z,56.44
2022-10-10T06:41:12.342Z,56.80
2022-10-10T06:42:12.337Z,58.64
2022-10-10T06:43:12.462Z,57.13
2022-10-10T06:44:12.340Z,55.66
2022-10-10T06:45:12.312Z,55.10
2022-10-10T06:46:12.304Z,56.46
2022-10-10T06:47:12.298Z,58.40
2022-10-10T06:48:12.290Z,54.94
2022-10-10T06:49:12.311Z,57.26
2022-10-10T06:50:12.279Z,51.54
2022-10-10T06:51:12.263Z,54.89
2022-10-10T06:52:12.257Z,56.42
2022-10-10T06:53:12.255Z,55.75
2022-10-10T06:54:12.273Z,54.70
2022-10-10T06:55:12.234Z,57.93
2022-10-10T06:56:12.333Z,56.25
2022-10-10T06:57:12.218Z,54.04
2022-10-10T06:58:12.208Z,59.25
2022-10-10T06:59:12.230Z,54.81
2022-10-10T07:00:12.190Z,57.72
2022-10-10T07:01:12.307Z,55.55
2022-10-10T07:02:12.183Z,57.73
2022-10-10T07:03:12.170Z,54.12
2022-10-10T07:04:12.195Z,58.05
2022-10-10T07:05:12.163Z,58.07
2022-10-10T07:06:12.210Z,56.46
2022-10-10T07:07:12.139Z,53.87
2022-10-10T07:08:12.136Z,54.48
2022-10-10T07:09:12.156Z,55.17
2022-10-10T07:10:12.125Z,55.19
2022-10-10T07:11:12.239Z,58.48
2022-10-10T07:12:12.110Z,54.49
2022-10-10T07:13:12.111Z,55.31
2022-10-10T07:14:12.121Z,55.57
2022-10-10T07:15:12.088Z,57.97
2022-10-10T07:16:12.128Z,55.38
2022-10-10T07:17:12.075Z,56.11
2022-10-10T07:18:12.071Z,56.56
2022-10-10T07:19:12.081Z,55.24
2022-10-10T07:20:12.044Z,53.08
2022-10-10T07:21:12.102Z,56.25
2022-10-10T07:22:12.038Z,55.22
2022-10-10T07:23:12.104Z,56.42
2022-10-10T07:24:12.042Z,55.48
2022-10-10T07:25:12.012Z,55.67
2022-10-10T07:26:12.098Z,60.75
2022-10-10T07:27:11.991Z,52.16
2022-10-10T07:28:12.038Z,56.31
2022-10-10T07:29:12.003Z,54.20
2022-10-10T07:30:11.971Z,58.20
2022-10-10T07:31:12.041Z,55.92
2022-10-10T07:32:11.952Z,56.09
2022-10-10T07:33:11.943Z,57.31
2022-10-10T07:34:11.963Z,57.54
2022-10-10T07:35:11.941Z,56.41
2022-10-10T07:36:11.944Z,57.38
2022-10-10T07:37:11.924Z,57.18
2022-10-10T07:38:11.913Z,57.24
2022-10-10T07:39:16.909Z,56.73
2022-10-10T07:40:13.894Z,56.10
2022-10-10T07:41:11.892Z,55.81
2022-10-10T07:42:11.876Z,56.56
2022-10-10T07:43:11.878Z,58.72
2022-10-10T07:44:11.888Z,55.03
2022-10-10T07:45:11.858Z,55.79
2022-10-10T07:46:12.499Z,57.22
2022-10-10T07:47:11.839Z,55.96
2022-10-10T07:48:11.834Z,56.64
2022-10-10T07:49:11.850Z,49.52
2022-10-10T07:50:11.813Z,56.44
2022-10-10T07:51:11.822Z,57.72
2022-10-10T07:52:11.803Z,55.85
2022-10-10T07:53:11.793Z,55.03
2022-10-10T07:54:11.810Z,58.63
2022-10-10T07:55:11.779Z,55.06
2022-10-10T07:56:11.819Z,52.67
2022-10-10T07:57:11.767Z,56.37
2022-10-10T07:58:11.742Z,64.67
2022-10-10T07:59:12.773Z,58.80
2022-10-10T08:00:11.736Z,55.31
2022-10-10T08:01:11.735Z,55.60
2022-10-10T08:02:11.787Z,54.81
2022-10-10T08:03:12.304Z,55.44
2022-10-10T08:04:12.746Z,52.96
2022-10-10T08:05:11.703Z,53.92
2022-10-10T08:06:11.693Z,55.94
2022-10-10T08:07:11.768Z,55.52
2022-10-10T08:08:11.684Z,56.06
2022-10-10T08:09:11.702Z,54.62
2022-10-10T08:10:11.668Z,54.47
2022-10-10T08:11:11.694Z,52.38
2022-10-10T08:12:11.659Z,56.00
2022-10-10T08:13:11.648Z,54.07
2022-10-10T08:14:11.666Z,55.71
2022-10-10T08:16:11.624Z,56.47
2022-10-10T08:17:11.614Z,59.65
2022-10-10T08:18:11.611Z,55.28
2022-10-10T08:19:11.629Z,56.90
2022-10-10T08:20:11.596Z,55.45
2022-10-10T08:21:11.588Z,55.71
2022-10-10T08:22:11.577Z,56.64
2022-10-10T08:23:11.568Z,56.35
2022-10-10T08:24:11.587Z,57.95
2022-10-10T08:25:11.563Z,55.66
2022-10-10T08:26:11.553Z,51.82
2022-10-10T08:27:11.541Z,56.89
2022-10-10T08:28:11.576Z,57.58
2022-10-10T08:29:11.568Z,54.75
2022-10-10T08:30:11.525Z,52.96
2022-10-10T08:31:11.512Z,56.15
2022-10-10T08:32:11.505Z,55.63
2022-10-10T08:33:11.499Z,55.22
2022-10-10T08:34:11.492Z,51.66
2022-10-10T08:35:11.508Z,56.44
2022-10-10T08:36:11.518Z,56.13
2022-10-10T08:37:11.470Z,56.02
2022-10-10T08:38:11.462Z,58.06
2022-10-10T08:39:11.453Z,57.01
2022-10-10T08:40:11.469Z,54.68
2022-10-10T08:41:11.442Z,55.83
2022-10-10T08:42:11.437Z,52.65
2022-10-10T08:43:11.422Z,57.49
2022-10-10T08:44:11.440Z,56.59
2022-10-10T08:45:11.430Z,55.85
2022-10-10T08:46:12.394Z,57.59
2022-10-10T08:47:11.397Z,54.21
2022-10-10T08:48:11.385Z,56.75
2022-10-10T08:49:13.944Z,58.23
2022-10-10T08:50:12.399Z,54.29
2022-10-10T08:51:11.363Z,52.18
2022-10-10T08:52:11.357Z,55.52
2022-10-10T08:53:11.353Z,49.05
2022-10-10T08:54:11.349Z,54.41
2022-10-10T08:55:11.358Z,54.92
2022-10-10T08:56:11.320Z,56.29
2022-10-10T08:57:11.318Z,55.21
2022-10-10T08:58:11.304Z,56.63
2022-10-10T08:59:11.303Z,56.88
2022-10-10T09:00:11.316Z,56.38
2022-10-10T09:01:11.326Z,55.14
2022-10-10T09:02:17.859Z,54.39
2022-10-10T09:03:12.272Z,56.26
2022-10-10T09:04:11.268Z,54.53
2022-10-10T09:05:11.297Z,55.13
2022-10-10T09:06:11.249Z,57.06
2022-10-10T09:07:11.240Z,58.35
2022-10-10T09:08:11.231Z,53.60
2022-10-10T09:09:11.223Z,56.87
2022-10-10T09:10:11.253Z,57.77
2022-10-10T09:11:11.239Z,58.18
2022-10-10T09:12:11.203Z,58.03
2022-10-10T09:13:11.194Z,56.51
2022-10-10T09:14:11.192Z,53.39
2022-10-10T09:15:11.204Z,57.20
2022-10-10T09:16:11.175Z,56.36
2022-10-10T09:17:11.160Z,57.67
2022-10-10T09:18:11.149Z,56.24
2022-10-10T09:19:12.561Z,54.23
2022-10-10T09:20:11.162Z,56.79
2022-10-10T09:21:11.132Z,53.26
2022-10-10T09:22:11.125Z,56.45
2022-10-10T09:23:11.115Z,56.28
2022-10-10T09:24:11.130Z,56.76
2022-10-10T09:25:11.101Z,53.81
2022-10-10T09:26:11.761Z,56.62
2022-10-10T09:27:12.079Z,54.54
2022-10-10T09:28:11.112Z,55.59
2022-10-10T09:29:11.088Z,55.27
2022-10-10T09:30:11.084Z,53.16
2022-10-10T09:31:11.050Z,53.54
2022-10-10T09:32:11.041Z,52.64
2022-10-10T09:33:11.036Z,56.35
2022-10-10T09:34:11.061Z,53.89
2022-10-10T09:35:11.028Z,55.20
2022-10-10T09:36:11.017Z,53.15
2022-10-10T09:37:13.719Z,54.70
2022-10-10T09:38:12.998Z,54.79
2022-10-10T09:39:11.006Z,55.05
2022-10-10T09:40:11.025Z,53.47
2022-10-10T09:41:11.024Z,56.43
2022-10-10T09:42:10.981Z,55.64
2022-10-10T09:43:10.975Z,51.09
2022-10-10T09:44:10.987Z,50.10
2022-10-10T09:45:10.942Z,58.33
2022-10-10T09:46:10.940Z,57.18
2022-10-10T09:47:10.936Z,53.10
2022-10-10T09:48:10.920Z,55.12
2022-10-10T09:49:10.948Z,53.38
2022-10-10T09:50:10.918Z,54.36
2022-10-10T09:51:10.903Z,55.18
2022-10-10T09:52:10.890Z,54.71
2022-10-10T09:53:10.888Z,59.75
2022-10-10T09:54:10.905Z,54.51
2022-10-10T09:55:10.868Z,55.97
2022-10-10T09:56:10.864Z,53.41
2022-10-10T09:57:10.856Z,51.85
2022-10-10T09:58:10.847Z,57.83
2022-10-10T09:59:10.863Z,53.63
2022-10-10T10:00:10.829Z,55.66
2022-10-10T10:01:10.845Z,55.15
2022-10-10T10:02:10.816Z,51.95
2022-10-10T10:03:10.804Z,54.92
2022-10-10T10:04:27.275Z,53.91
2022-10-10T10:05:12.789Z,52.92
2022-10-10T10:06:10.781Z,55.06
2022-10-10T10:07:10.770Z,56.25
2022-10-10T10:08:10.764Z,55.07
2022-10-10T10:09:10.785Z,54.92
2022-10-10T10:10:10.752Z,52.81
2022-10-10T10:11:10.752Z,58.94
2022-10-10T10:12:10.752Z,55.97
2022-10-10T10:13:10.736Z,53.11
2022-10-10T10:14:10.879Z,58.66
2022-10-10T10:15:10.716Z,55.11
2022-10-10T10:16:10.708Z,55.78
2022-10-10T10:17:10.716Z,55.80
2022-10-10T10:18:10.690Z,54.56
2022-10-10T10:19:10.706Z,52.64
2022-10-10T10:20:11.005Z,55.29
2022-10-10T10:21:11.670Z,57.89
2022-10-10T10:22:10.661Z,57.43
2022-10-10T10:23:10.659Z,52.90
2022-10-10T10:24:10.685Z,55.50
2022-10-10T10:25:10.641Z,55.14
2022-10-10T10:26:10.637Z,57.62
2022-10-10T10:27:10.622Z,53.04
2022-10-10T10:28:10.638Z,51.51
2022-10-10T10:29:10.640Z,52.79
2022-10-10T10:30:10.603Z,55.27
2022-10-10T10:31:10.594Z,58.80
2022-10-10T10:32:10.585Z,52.33
2022-10-10T10:33:10.580Z,50.76
2022-10-10T10:34:10.597Z,49.78
2022-10-10T10:35:10.563Z,56.37
2022-10-10T10:36:10.554Z,52.23
2022-10-10T10:37:14.750Z,54.83
2022-10-10T10:38:11.530Z,52.31
2022-10-10T10:39:11.563Z,51.78
2022-10-10T10:40:10.527Z,55.06
2022-10-10T10:41:10.520Z,47.32
2022-10-10T10:42:10.512Z,46.88
2022-10-10T10:43:10.503Z,53.46
2022-10-10T10:44:10.520Z,55.22
2022-10-10T10:45:10.490Z,56.98
2022-10-10T10:46:10.477Z,56.34
2022-10-10T10:47:10.467Z,52.26
2022-10-10T10:48:10.467Z,53.66
2022-10-10T10:49:10.484Z,55.89
2022-10-10T10:50:10.441Z,50.36
2022-10-10T10:51:10.433Z,52.62
2022-10-10T10:52:10.433Z,53.42
2022-10-10T10:53:10.420Z,55.43
2022-10-10T10:54:10.454Z,55.16
2022-10-10T10:55:10.406Z,51.00
2022-10-10T10:56:10.404Z,52.91
2022-10-10T10:57:11.212Z,54.28
2022-10-10T11:00:21.812Z,50.53
2022-10-10T11:01:20.204Z,51.39
2022-10-10T11:02:11.598Z,52.03
2022-10-10T11:03:35.260Z,53.77
2022-10-10T11:05:20.450Z,55.16
2022-10-10T11:05:22.745Z,53.25
2022-10-10T11:06:11.375Z,55.63
2022-10-10T11:07:19.458Z,55.73
2022-10-10T11:08:12.365Z,55.80
2022-10-10T11:09:16.845Z,52.74
2022-10-10T11:10:12.287Z,48.77
2022-10-10T11:11:10.287Z,55.93
2022-10-10T11:12:10.277Z,52.75
2022-10-10T11:13:10.315Z,52.57
2022-10-10T11:14:10.302Z,56.54
2022-10-10T11:15:10.254Z,54.37
2022-10-10T11:16:24.264Z,53.82
2022-10-10T11:17:12.235Z,52.10
2022-10-10T11:18:10.279Z,51.46
2022-10-10T11:19:10.876Z,49.60
2022-10-10T11:20:10.214Z,54.44
2022-10-10T11:21:10.208Z,49.35
2022-10-10T11:22:10.197Z,53.36
2022-10-10T11:23:10.198Z,51.04
2022-10-10T11:24:10.199Z,53.73
2022-10-10T11:25:11.178Z,52.92
2022-10-10T11:26:10.169Z,54.05
2022-10-10T11:27:10.164Z,53.16
2022-10-10T11:28:10.190Z,53.94
2022-10-10T11:29:10.173Z,55.32
2022-10-10T11:30:10.151Z,53.31
2022-10-10T11:31:10.160Z,52.81
2022-10-10T11:32:10.190Z,47.14
2022-10-10T11:33:10.115Z,55.10
2022-10-10T11:34:10.128Z,53.30
2022-10-10T11:35:10.114Z,53.08
2022-10-10T11:36:10.088Z,52.96
2022-10-10T11:37:10.082Z,58.87
2022-10-10T11:38:10.075Z,51.71
2022-10-10T11:39:14.528Z,55.16
2022-10-10T11:40:12.099Z,55.58
2022-10-10T11:41:10.048Z,52.97
2022-10-10T11:42:10.046Z,52.98
2022-10-10T11:43:10.032Z,53.97
2022-10-10T11:44:10.093Z,53.43
2022-10-10T11:45:10.028Z,53.73
2022-10-10T11:46:10.324Z,55.88
2022-10-10T11:47:10.005Z,53.66
2022-10-10T11:48:10.002Z,52.73
2022-10-10T11:49:10.034Z,51.42
2022-10-10T11:50:09.980Z,56.16
2022-10-10T11:51:14.034Z,51.98
2022-10-10T11:52:32.606Z,53.59
2022-10-10T11:53:11.963Z,56.94
2022-10-10T11:54:09.951Z,55.39
2022-10-10T11:55:09.964Z,54.10
2022-10-10T11:56:09.934Z,56.60
2022-10-10T11:57:12.870Z,52.72
2022-10-10T11:58:10.933Z,56.64
2022-10-10T11:59:09.909Z,55.95
2022-10-10T12:00:09.975Z,52.42
2022-10-10T12:01:10.900Z,54.50
2022-10-10T12:02:09.889Z,54.47
2022-10-10T12:03:09.883Z,58.78
2022-10-10T12:04:09.877Z,56.65
2022-10-10T12:05:09.927Z,54.50
2022-10-10T12:06:09.859Z,56.33
2022-10-10T12:07:09.855Z,59.76
2022-10-10T12:08:11.504Z,53.50
2022-10-10T12:09:09.838Z,56.97
2022-10-10T12:10:09.929Z,51.98
2022-10-10T12:11:09.822Z,52.08
2022-10-10T12:12:09.817Z,56.09
2022-10-10T12:13:09.808Z,57.14
2022-10-10T12:14:09.795Z,51.83
2022-10-10T12:15:09.820Z,54.31
2022-10-10T12:16:09.782Z,53.04
2022-10-10T12:17:09.783Z,55.93
2022-10-10T12:18:09.769Z,53.67
2022-10-10T12:19:09.756Z,56.51
2022-10-10T12:20:09.801Z,54.59
2022-10-10T12:21:09.748Z,54.45
2022-10-10T12:22:09.737Z,54.56
2022-10-10T12:23:09.735Z,53.68
2022-10-10T12:24:09.750Z,56.07
2022-10-10T12:25:09.734Z,53.10
2022-10-10T12:26:09.706Z,56.38
2022-10-10T12:27:09.695Z,56.13
2022-10-10T12:28:09.737Z,55.85
2022-10-10T12:29:09.682Z,53.11
2022-10-10T12:30:09.778Z,56.58
2022-10-10T12:31:09.670Z,55.38
2022-10-10T12:32:09.664Z,52.62
2022-10-10T12:33:09.656Z,55.17
2022-10-10T12:34:09.644Z,56.62
2022-10-10T12:35:09.661Z,58.56
2022-10-10T12:36:09.632Z,56.20
2022-10-10T12:37:09.618Z,52.03
2022-10-10T12:38:09.610Z,56.46
2022-10-10T12:39:09.613Z,60.55
2022-10-10T12:40:09.677Z,56.09
2022-10-10T12:41:09.587Z,53.40
2022-10-10T12:42:09.589Z,58.78
2022-10-10T12:43:09.577Z,55.72
2022-10-10T12:44:09.568Z,55.39
2022-10-10T12:45:09.591Z,61.15
2022-10-10T12:46:09.540Z,55.54
2022-10-10T12:47:10.544Z,56.10
2022-10-10T12:48:09.534Z,56.96
2022-10-10T12:49:09.525Z,56.20
2022-10-10T12:50:09.552Z,54.86
2022-10-10T12:51:09.513Z,52.88
2022-10-10T12:52:09.503Z,56.60
2022-10-10T12:53:09.496Z,57.11
2022-10-10T12:54:09.484Z,55.61
2022-10-10T12:55:09.483Z,56.19